Time;durP1;ratioP1;P1;durP2;ratioP2;P2;SDS_P1;SDS_P2;PMS_P1;PMS_P2;Temp;Humidity;BMP_temperature;BMP_pressure;BME280_temperature;BME280_humidity;BME280_pressure;Samples;Min_cycle;Max_cycle;Signal;HPM_P1;HPM_P2
2022/06/03 00:00:00;;;;;;;;;19.00;17.25;;;;;20.08;74.06;99939.28;5046268;28;45438;-70
2022/06/03 00:02:53;;;;;;;;;17.00;16.50;;;;;20.11;73.40;99942.72;5046058;28;45346;-69
2022/06/03 00:05:56;;;;;;;;;18.25;17.25;;;;;20.09;73.80;99947.19;5046898;28;45493;-69
2022/06/03 00:08:40;;;;;;;;;17.33;16.00;;;;;20.06;72.67;99950.78;5044606;28;45519;-69
2022/06/03 00:11:23;;;;;;;;;17.00;16.75;;;;;19.99;74.67;99948.28;5046501;28;45850;-70
2022/06/03 00:14:27;;;;;;;;;21.25;18.50;;;;;19.97;74.11;99956.25;5046536;28;45524;-71
2022/06/03 00:17:43;;;;;;;;;19.00;17.75;;;;;19.94;74.02;99953.66;5014465;28;45918;-69
2022/06/03 00:20:16;;;;;;;;;18.00;16.75;;;;;19.93;74.77;99951.03;4984574;28;45566;-71
2022/06/03 00:22:53;;;;;;;;;17.25;15.75;;;;;20.04;74.37;99957.03;4984861;28;45517;-69
2022/06/03 00:25:43;;;;;;;;;17.25;16.75;;;;;20.03;74.03;99939.34;5026135;28;45601;-69
2022/06/03 00:29:13;;;;;;;;;17.00;17.00;;;;;20.03;73.46;99931.41;5045947;28;45362;-70
2022/06/03 00:32:04;;;;;;;;;16.75;16.25;;;;;20.04;74.19;99930.50;4979468;28;45551;-70
2022/06/03 00:34:35;;;;;;;;;17.50;16.50;;;;;20.05;74.21;99941.09;5045754;28;45436;-71
2022/06/03 00:37:22;;;;;;;;;15.75;15.50;;;;;20.06;74.27;99937.53;5046375;28;45783;-70
2022/06/03 00:40:11;;;;;;;;;14.75;14.50;;;;;20.08;74.61;99953.41;5045984;28;45994;-70
2022/06/03 00:43:06;;;;;;;;;14.33;14.00;;;;;20.10;74.27;99943.66;5040180;28;45534;-70
2022/06/03 00:46:08;;;;;;;;;13.67;12.67;;;;;20.12;73.76;99952.44;5046118;28;45571;-69
2022/06/03 00:48:40;;;;;;;;;13.67;13.33;;;;;20.10;72.91;99953.41;5043398;28;45432;-70
2022/06/03 00:51:43;;;;;;;;;13.00;12.33;;;;;20.07;73.17;99956.94;5044993;28;45515;-70
2022/06/03 00:54:23;;;;;;;;;13.67;13.67;;;;;20.09;72.46;99964.88;5046796;28;45438;-71
2022/06/03 00:57:08;;;;;;;;;13.00;11.00;;;;;20.09;72.85;99967.53;5048180;28;45400;-71
2022/06/03 00:59:57;;;;;;;;;13.33;13.00;;;;;20.11;72.25;99976.34;5049591;28;45537;-71
2022/06/03 01:02:45;;;;;;;;;12.67;12.00;;;;;20.08;72.37;99971.97;5049138;28;46067;-69
2022/06/03 01:05:48;;;;;;;;;13.67;12.00;;;;;20.01;72.64;99965.03;5048925;28;45260;-68
2022/06/03 01:08:42;;;;;;;;;12.67;12.33;;;;;19.99;72.32;99973.00;5046562;28;45468;-71
2022/06/03 01:11:23;;;;;;;;;15.67;14.00;;;;;19.98;72.75;99979.22;5046893;28;45441;-69
2022/06/03 01:14:04;;;;;;;;;13.67;12.67;;;;;19.97;72.97;99993.34;5049169;28;46050;-70
2022/06/03 01:16:50;;;;;;;;;13.33;13.33;;;;;19.97;73.31;99996.00;5048337;28;45519;-70
2022/06/03 01:19:22;;;;;;;;;14.00;13.33;;;;;20.01;73.79;100013.59;5049395;28;45476;-71
2022/06/03 01:22:05;;;;;;;;;14.00;13.67;;;;;20.03;73.67;100014.50;5048765;28;45366;-70
2022/06/03 01:24:42;;;;;;;;;14.00;14.00;;;;;20.04;73.15;100013.56;5047778;28;46050;-69
2022/06/03 01:27:32;;;;;;;;;16.75;15.75;;;;;20.03;73.23;100008.28;5048821;28;45403;-69
2022/06/03 01:30:35;;;;;;;;;16.67;15.33;;;;;20.03;73.79;100008.28;5039448;28;45317;-69
2022/06/03 01:33:38;;;;;;;;;19.00;18.00;;;;;20.03;73.48;99997.69;5047304;28;45481;-69
2022/06/03 01:36:03;;;;;;;;;17.67;16.00;;;;;20.01;73.57;99986.22;5046907;28;46064;-70
2022/06/03 01:38:53;;;;;;;;;17.33;16.67;;;;;19.86;73.11;99963.53;5048302;28;45502;-70
2022/06/03 01:41:56;;;;;;;;;17.25;17.25;;;;;19.96;74.40;99973.06;5049272;28;45423;-69
2022/06/03 01:44:53;;;;;;;;;20.75;18.25;;;;;19.90;74.27;99914.00;5042692;28;45378;-69
2022/06/03 01:47:25;;;;;;;;;17.75;15.25;;;;;19.81;73.55;99894.69;5048805;28;46223;-71
2022/06/03 01:50:23;;;;;;;;;18.67;18.33;;;;;19.79;75.52;99869.97;5046983;28;45438;-69
2022/06/03 01:53:23;;;;;;;;;19.50;18.50;;;;;19.80;74.26;99844.38;5048445;28;45390;-70
2022/06/03 01:55:57;;;;;;;;;19.75;18.50;;;;;19.70;75.79;99811.84;5046077;28;45533;-73
2022/06/03 01:58:28;;;;;;;;;17.67;17.67;;;;;19.67;74.83;99790.69;5048353;28;45627;-72
2022/06/03 02:01:09;;;;;;;;;16.00;15.00;;;;;19.62;74.76;99779.31;5048206;28;45326;-72
2022/06/03 02:03:57;;;;;;;;;18.75;17.50;;;;;19.59;74.84;99829.72;5047034;28;45541;-73
2022/06/03 02:07:00;;;;;;;;;13.33;13.00;;;;;19.65;75.22;99901.13;5038929;28;45418;-72
2022/06/03 02:10:02;;;;;;;;;16.50;15.00;;;;;19.74;75.43;99958.44;5038600;28;46707;-70
2022/06/03 02:13:16;;;;;;;;;13.75;13.75;;;;;19.78;74.79;99978.69;5038918;28;45615;-73
2022/06/03 02:15:50;;;;;;;;;14.67;14.67;;;;;19.77;73.86;99974.28;5038383;28;45494;-74
2022/06/03 02:18:25;;;;;;;;;14.33;12.33;;;;;19.74;73.90;99966.41;5038845;28;45429;-73
2022/06/03 02:21:22;;;;;;;;;11.00;10.33;;;;;19.66;72.70;99959.41;5038610;28;46193;-72
2022/06/03 02:23:59;;;;;;;;;12.00;9.33;;;;;19.63;72.31;99959.44;5038378;28;45427;-72
2022/06/03 02:27:00;;;;;;;;;9.00;9.00;;;;;19.62;71.80;99955.06;5038559;28;45504;-72
2022/06/03 02:32:28;;;;;;;;;11.67;11.33;;;;;19.51;71.96;99975.53;5038496;28;45944;-72
2022/06/03 02:35:20;;;;;;;;;13.00;9.00;;;;;19.49;71.41;99982.63;5038519;28;45494;-71
2022/06/03 02:37:46;;;;;;;;;11.00;9.33;;;;;19.44;71.60;99979.22;5038516;28;45473;-73
2022/06/03 02:41:05;;;;;;;;;7.00;7.00;;;;;19.38;72.03;99968.72;5038554;28;45507;-73
2022/06/03 02:43:37;;;;;;;;;7.33;6.00;;;;;19.32;71.51;99976.72;4976878;28;45685;-72
2022/06/03 02:46:08;;;;;;;;;6.67;6.67;;;;;19.25;71.76;99982.09;5035727;28;45492;-69
2022/06/03 02:48:52;;;;;;;;;9.00;8.33;;;;;19.26;72.22;99981.22;5046919;28;45655;-74
2022/06/03 02:51:34;;;;;;;;;8.00;7.00;;;;;19.08;71.83;99969.13;5056130;28;46545;-71
2022/06/03 02:54:02;;;;;;;;;8.00;8.00;;;;;19.33;71.72;100010.25;5055926;28;45335;-70
2022/06/03 02:56:49;;;;;;;;;7.00;7.00;;;;;19.36;71.87;100010.19;5056351;28;45572;-68
2022/06/03 02:59:36;;;;;;;;;7.00;6.00;;;;;19.42;72.09;100013.66;5055434;28;45500;-69
2022/06/03 03:02:14;;;;;;;;;8.00;8.00;;;;;19.35;71.87;99980.19;5056617;28;45588;-72
2022/06/03 03:05:01;;;;;;;;;7.00;7.00;;;;;19.44;72.04;99995.97;5056193;28;45315;-69
2022/06/03 03:07:44;;;;;;;;;6.00;6.00;;;;;19.35;71.92;99997.88;5056553;28;45462;-69
2022/06/03 03:10:29;;;;;;;;;8.00;8.00;;;;;19.48;72.83;100007.41;5054312;28;45291;-69
2022/06/03 03:13:27;;;;;;;;;9.33;8.00;;;;;19.51;72.63;100009.97;5055493;28;45486;-69
2022/06/03 03:16:14;;;;;;;;;7.67;7.00;;;;;19.51;72.31;100006.47;5052977;28;45460;-69
2022/06/03 03:19:14;;;;;;;;;9.67;9.33;;;;;19.43;72.83;99995.97;5054109;28;45312;-71
2022/06/03 03:21:45;;;;;;;;;10.00;9.33;;;;;19.39;73.15;99994.28;5055532;28;45611;-69
2022/06/03 03:24:23;;;;;;;;;8.00;7.33;;;;;19.39;72.99;99991.63;5056204;28;45511;-70
2022/06/03 03:27:00;;;;;;;;;11.67;9.67;;;;;19.38;73.40;99985.47;5053727;28;45321;-68
2022/06/03 03:29:51;;;;;;;;;7.33;6.00;;;;;19.36;72.88;99983.72;5053467;28;45428;-70
2022/06/03 03:32:46;;;;;;;;;8.00;7.33;;;;;19.30;72.21;99989.09;5054828;28;45523;-70
2022/06/03 03:35:35;;;;;;;;;7.00;6.33;;;;;19.20;71.81;99991.91;5054286;28;45639;-68
2022/06/03 03:38:47;;;;;;;;;7.00;7.00;;;;;19.08;72.09;99977.06;5055601;28;45446;-68
2022/06/03 03:41:51;;;;;;;;;7.00;7.00;;;;;19.06;72.39;99999.19;5054138;28;45465;-69
2022/06/03 03:45:04;;;;;;;;;7.00;6.33;;;;;19.05;72.36;99987.69;5054939;28;45384;-68
2022/06/03 03:47:55;;;;;;;;;8.33;8.33;;;;;19.00;73.11;99992.19;5055374;28;45561;-70
2022/06/03 03:50:39;;;;;;;;;8.67;8.33;;;;;18.96;73.99;99993.13;5056923;28;45576;-70
2022/06/03 03:53:29;;;;;;;;;11.00;8.00;;;;;19.01;74.21;99999.22;5057672;28;45450;-69
2022/06/03 03:55:54;;;;;;;;;7.00;7.00;;;;;19.08;73.37;100000.03;5057375;28;45261;-71
2022/06/03 03:58:57;;;;;;;;;7.00;6.33;;;;;19.08;73.18;99992.97;5057451;28;45486;-70
2022/06/03 04:01:44;;;;;;;;;6.33;5.67;;;;;19.06;72.81;99988.59;5057420;28;46213;-69
2022/06/03 04:04:49;;;;;;;;;7.00;7.00;;;;;19.02;73.22;99992.13;5057256;28;45386;-69
2022/06/03 04:08:00;;;;;;;;;6.67;6.00;;;;;19.04;72.24;100000.97;5057454;28;45503;-71
2022/06/03 04:11:22;;;;;;;;;4.67;4.67;;;;;18.99;72.14;100008.09;5057475;28;45224;-69
2022/06/03 04:14:19;;;;;;;;;5.67;5.67;;;;;18.96;72.27;99992.22;5054434;28;45664;-70
2022/06/03 04:16:59;;;;;;;;;4.67;4.33;;;;;18.93;71.99;99977.28;5054397;28;45493;-67
2022/06/03 04:19:51;;;;;;;;;3.33;3.33;;;;;18.88;71.82;99993.22;5070223;28;45484;-69
2022/06/03 04:22:34;;;;;;;;;6.00;4.00;;;;;18.84;71.91;100007.41;5057317;28;45299;-69
2022/06/03 04:25:35;;;;;;;;;4.00;4.00;;;;;18.81;71.65;100010.06;5056707;28;45453;-69
2022/06/03 04:28:33;;;;;;;;;4.33;4.33;;;;;18.77;71.99;100010.97;5054891;28;45487;-69
2022/06/03 04:31:29;;;;;;;;;3.00;3.00;;;;;18.80;72.19;100010.06;5056065;28;45392;-70
2022/06/03 04:34:17;;;;;;;;;3.33;3.33;;;;;18.83;71.55;99997.69;5057182;28;45482;-69
2022/06/03 04:37:07;;;;;;;;;5.00;4.33;;;;;18.79;72.00;99990.69;5055543;28;47955;-69
2022/06/03 04:39:41;;;;;;;;;4.33;4.33;;;;;18.76;71.80;99985.41;5057124;28;45358;-69
2022/06/03 04:42:41;;;;;;;;;5.00;5.00;;;;;18.72;71.50;99982.81;5057288;28;45474;-69
2022/06/03 04:45:31;;;;;;;;;5.33;5.00;;;;;18.68;71.07;99990.78;5057233;28;45514;-69
2022/06/03 04:48:18;;;;;;;;;5.67;4.67;;;;;18.65;71.31;99988.16;5056488;28;45502;-69
2022/06/03 04:51:02;;;;;;;;;3.00;3.00;;;;;18.65;71.67;99993.47;5056674;28;45272;-69
2022/06/03 04:54:24;;;;;;;;;4.33;4.33;;;;;18.64;72.50;99994.38;5056896;28;45539;-69
2022/06/03 04:57:11;;;;;;;;;5.33;5.00;;;;;18.70;71.70;99993.41;5054053;28;45470;-69
2022/06/03 05:00:13;;;;;;;;;9.00;6.00;;;;;18.72;71.75;100012.81;5054063;28;46089;-69
2022/06/03 05:03:09;;;;;;;;;6.00;4.67;;;;;18.79;71.29;100026.81;5052451;28;45535;-69
2022/06/03 05:06:00;;;;;;;;;5.00;4.00;;;;;18.79;70.87;100017.16;5054308;28;45602;-70
2022/06/03 05:08:54;;;;;;;;;4.67;4.67;;;;;18.78;70.90;100025.06;5052847;28;45472;-69
2022/06/03 05:12:17;;;;;;;;;5.00;5.00;;;;;18.85;70.92;100032.94;5051887;28;46213;-68
2022/06/03 05:15:18;;;;;;;;;4.00;4.00;;;;;18.93;70.35;100029.34;5054362;28;45817;-69
2022/06/03 05:17:57;;;;;;;;;6.00;5.00;;;;;19.00;69.90;100031.91;5065423;28;45391;-69
2022/06/03 05:20:27;;;;;;;;;5.33;5.00;;;;;19.03;70.26;100037.13;5065795;28;45571;-68
2022/06/03 05:23:01;;;;;;;;;5.00;3.00;;;;;19.03;69.74;100034.47;5064210;28;46217;-69
2022/06/03 05:25:40;;;;;;;;;4.67;4.67;;;;;19.02;69.46;100030.09;5060386;28;45327;-68
2022/06/03 05:28:27;;;;;;;;;5.00;5.00;;;;;19.07;69.62;100022.09;5063683;27;45454;-70
2022/06/03 05:31:26;;;;;;;;;5.00;4.67;;;;;19.07;69.84;100022.97;5062615;28;45365;-68
2022/06/03 05:34:02;;;;;;;;;5.00;4.00;;;;;19.07;69.73;100016.78;5062280;28;46436;-69
2022/06/03 05:36:41;;;;;;;;;5.33;5.00;;;;;18.98;69.14;99995.72;5060771;28;45362;-68
2022/06/03 05:39:54;;;;;;;;;4.00;4.00;;;;;19.18;68.52;100009.59;5066005;27;45538;-71
2022/06/03 05:42:28;;;;;;;;;4.00;4.00;;;;;19.17;68.36;100017.56;5057929;28;45609;-68
2022/06/03 05:45:36;;;;;;;;;4.67;3.67;;;;;19.21;68.52;100013.97;5065667;28;46042;-69
2022/06/03 05:48:25;;;;;;;;;7.00;5.00;;;;;19.21;68.44;100014.81;5067802;28;45334;-68
2022/06/03 05:51:10;;;;;;;;;4.67;4.67;;;;;19.21;68.25;100028.06;5063999;28;45529;-69
2022/06/03 05:53:39;;;;;;;;;6.00;5.00;;;;;19.26;68.71;100038.63;5066814;28;45617;-70
2022/06/03 05:56:32;;;;;;;;;5.33;5.33;;;;;19.35;68.13;100034.94;5066717;27;45459;-69
2022/06/03 05:59:22;;;;;;;;;6.00;5.67;;;;;19.42;68.38;100023.38;5065540;28;45471;-72
2022/06/03 06:02:15;;;;;;;;;6.00;6.00;;;;;19.51;68.67;100012.63;5058046;28;45350;-71
2022/06/03 06:04:59;;;;;;;;;5.67;5.33;;;;;19.58;69.27;100003.69;5057252;28;45404;-72
2022/06/03 06:07:30;;;;;;;;;5.33;4.00;;;;;19.63;67.82;100001.84;5055044;28;46078;-72
2022/06/03 06:10:10;;;;;;;;;19.33;16.67;;;;;19.65;67.60;99978.84;5059010;28;45286;-71
2022/06/03 06:12:35;;;;;;;;;9.00;9.00;;;;;19.64;67.63;99961.22;5059533;28;45378;-71
2022/06/03 06:15:54;;;;;;;;;13.00;12.33;;;;;19.65;67.89;99973.53;5059306;28;45461;-72
2022/06/03 06:18:31;;;;;;;;;13.75;13.50;;;;;19.76;67.47;99983.16;5013819;28;46334;-78
2022/06/03 06:21:03;;;;;;;;;60.00;49.00;;;;;19.84;67.56;99975.94;5025371;27;45386;-77
2022/06/03 06:23:28;;;;;;;;;40.25;35.75;;;;;19.98;67.80;99995.13;5042569;28;45493;-74
2022/06/03 06:26:12;;;;;;;;;26.00;23.50;;;;;20.13;66.42;100009.00;5037165;28;45502;-75
2022/06/03 06:28:46;;;;;;;;;7.67;7.67;;;;;20.32;66.31;100010.44;5044553;28;45537;-74
2022/06/03 06:31:30;;;;;;;;;13.33;11.00;;;;;20.62;65.75;100008.13;5057418;28;45367;-76
2022/06/03 06:34:02;;;;;;;;;8.33;7.33;;;;;20.99;64.73;100013.56;5057823;28;45385;-75
2022/06/03 06:37:21;;;;;;;;;6.33;5.00;;;;;21.40;64.02;100010.88;5057406;28;45620;-75
2022/06/03 06:39:52;;;;;;;;;5.00;4.00;;;;;22.16;61.87;100001.94;4995207;28;45511;-74
2022/06/03 06:42:26;;;;;;;;;6.00;5.00;;;;;23.28;59.13;99995.25;5055428;28;45287;-74
2022/06/03 06:45:12;;;;;;;;;8.00;8.00;;;;;23.93;57.25;99997.59;5049169;28;45506;-73
2022/06/03 06:48:30;;;;;;;;;6.33;6.33;;;;;23.56;56.90;100006.78;5049316;28;45445;-74
2022/06/03 06:51:13;;;;;;;;;5.67;5.00;;;;;23.38;57.80;100005.59;4997438;28;46102;-74
2022/06/03 06:53:53;;;;;;;;;7.00;7.00;;;;;23.81;55.83;100011.34;5038814;28;45498;-74
2022/06/03 06:56:30;;;;;;;;;5.00;5.00;;;;;23.67;55.34;99976.22;5042169;28;45409;-75
2022/06/03 06:59:07;;;;;;;;;4.00;3.00;;;;;23.59;55.22;99987.16;5048634;28;45526;-75
2022/06/03 07:01:35;;;;;;;;;3.00;3.00;;;;;23.49;55.62;99991.91;5048406;28;45496;-71
2022/06/03 07:04:14;;;;;;;;;4.00;4.00;;;;;23.32;56.00;99981.78;5047134;28;45636;-71
2022/06/03 07:06:42;;;;;;;;;5.00;4.33;;;;;23.41;56.18;99985.94;5047582;28;45260;-69
2022/06/03 07:09:10;;;;;;;;;4.00;4.00;;;;;23.51;56.91;99991.84;5043613;28;45454;-73
2022/06/03 07:11:51;;;;;;;;;5.00;5.00;;;;;23.71;56.38;99991.22;5041283;28;46442;-71
2022/06/03 07:14:26;;;;;;;;;4.67;4.67;;;;;24.07;55.46;99997.13;5047479;28;45224;-69
2022/06/03 07:20:08;;;;;;;;;5.00;5.00;;;;;24.79;53.83;100009.75;5048809;28;46555;-73
2022/06/03 07:22:52;;;;;;;;;5.00;4.00;;;;;25.02;53.81;100019.53;5047213;28;45587;-70
2022/06/03 07:25:37;;;;;;;;;4.33;4.33;;;;;25.31;53.08;100014.91;5045343;28;45434;-70
2022/06/03 07:28:18;;;;;;;;;4.00;3.00;;;;;25.74;51.59;100010.50;5045784;28;46607;-70
2022/06/03 07:30:54;;;;;;;;;5.00;5.00;;;;;26.01;49.86;99996.94;5046769;28;45311;-69
2022/06/03 07:33:29;;;;;;;;;4.00;4.00;;;;;26.05;50.17;100002.09;5045184;28;46241;-70
2022/06/03 07:36:04;;;;;;;;;5.33;4.67;;;;;25.99;49.09;100002.34;5046317;28;45434;-69
2022/06/03 07:38:47;;;;;;;;;5.00;5.00;;;;;25.94;48.86;100004.34;5044175;28;45764;-70
2022/06/03 07:41:35;;;;;;;;;9.00;8.00;;;;;25.79;48.87;100000.47;5036160;28;45335;-70
2022/06/03 07:44:06;;;;;;;;;6.00;6.00;;;;;25.72;49.50;100026.59;5035895;28;45325;-70
2022/06/03 07:46:41;;;;;;;;;7.33;7.00;;;;;25.53;49.16;100025.63;5034493;28;45418;-70
2022/06/03 07:49:08;;;;;;;;;6.33;5.67;;;;;25.36;49.69;100012.91;5035416;28;45444;-70
2022/06/03 07:51:42;;;;;;;;;6.00;6.00;;;;;25.33;49.85;100003.22;5035516;28;45276;-69
2022/06/03 07:54:29;;;;;;;;;7.00;6.67;;;;;25.43;50.08;100013.53;5035401;28;46010;-70
2022/06/03 07:57:18;;;;;;;;;203.33;110.33;;;;;25.47;50.14;99977.75;5035649;28;45371;-72
2022/06/03 07:59:44;;;;;;;;;7.00;5.67;;;;;25.62;49.96;99984.25;5034408;28;45451;-71
2022/06/03 08:02:18;;;;;;;;;5.00;5.00;;;;;25.50;50.07;99999.00;5035283;28;45644;-70
2022/06/03 08:04:47;;;;;;;;;6.00;5.67;;;;;25.35;50.55;99997.81;5044034;28;46222;-70
2022/06/03 08:12:58;;;;;;;;;72.25;44.00;;;;;26.09;49.39;100002.84;5042003;28;45544;-70
2022/06/03 08:15:35;;;;;;;;;9.00;6.67;;;;;26.68;47.87;99996.69;5044147;28;45509;-70
2022/06/03 08:18:09;;;;;;;;;33.67;23.00;;;;;27.03;47.47;100012.91;5045874;28;45551;-71
2022/06/03 08:20:45;;;;;;;;;6.67;5.67;;;;;27.13;47.10;100010.69;5046130;28;45435;-70
2022/06/03 08:23:11;;;;;;;;;7.00;6.00;;;;;28.56;44.80;100006.31;5046625;28;45474;-70
2022/06/03 08:25:43;;;;;;;;;14.67;10.00;;;;;30.35;40.66;100004.31;5044044;28;46081;-71
2022/06/03 08:28:16;;;;;;;;;24.33;14.33;;;;;30.69;40.18;99998.53;5043848;28;45439;-71
2022/06/03 08:30:46;;;;;;;;;7.33;6.33;;;;;31.04;38.35;99998.19;5045008;28;45531;-70
2022/06/03 08:33:15;;;;;;;;;5.00;5.00;;;;;31.46;38.86;100004.50;5049706;28;45677;-70
2022/06/03 08:35:46;;;;;;;;;14.33;11.00;;;;;33.22;35.46;100005.94;5044221;28;46257;-71
2022/06/03 08:38:25;;;;;;;;;47.33;32.67;;;;;33.82;34.33;100013.22;5045908;28;45488;-68
2022/06/03 08:41:27;;;;;;;;;13.33;10.00;;;;;33.94;34.33;100008.69;5045587;28;45552;-71
2022/06/03 08:44:25;;;;;;;;;27.67;14.33;;;;;35.61;31.08;100015.41;5043970;28;45438;-69
2022/06/03 08:47:16;;;;;;;;;6.33;6.00;;;;;38.09;27.83;100019.00;5046547;28;46253;-70
2022/06/03 08:50:11;;;;;;;;;18.33;12.33;;;;;37.86;27.54;100025.72;5036137;28;45588;-68
2022/06/03 08:52:55;;;;;;;;;26.33;18.67;;;;;36.74;28.99;100025.78;5047000;28;45520;-68
2022/06/03 08:55:27;;;;;;;;;7.67;6.67;;;;;37.77;27.50;100028.28;5046539;28;45413;-69
2022/06/03 08:57:59;;;;;;;;;28.67;24.67;;;;;36.67;28.42;100022.75;5046846;28;45613;-70
2022/06/03 09:00:36;;;;;;;;;6.00;6.00;;;;;35.43;29.81;100021.38;5053750;28;45458;-70
2022/06/03 09:03:09;;;;;;;;;4.00;4.00;;;;;35.28;30.59;100021.75;5055876;28;45426;-74
2022/06/03 09:05:47;;;;;;;;;5.33;5.00;;;;;35.20;30.32;100019.69;5056544;28;45232;-70
2022/06/03 09:08:31;;;;;;;;;5.33;5.33;;;;;36.22;28.12;100007.53;5056509;28;46125;-74
2022/06/03 09:11:03;;;;;;;;;6.00;6.00;;;;;35.35;29.87;100031.16;5056323;28;45358;-70
2022/06/03 09:13:43;;;;;;;;;5.33;5.00;;;;;36.27;29.08;100023.44;5058136;28;45399;-71
2022/06/03 09:16:17;;;;;;;;;5.67;4.67;;;;;36.82;29.23;100021.38;5059966;28;45389;-74
2022/06/03 09:18:47;;;;;;;;;6.00;6.00;;;;;37.00;29.42;100031.63;5059916;28;45589;-74
2022/06/03 09:21:18;;;;;;;;;5.00;5.00;;;;;36.78;28.84;100032.66;5059906;28;45276;-73
2022/06/03 09:23:48;;;;;;;;;6.67;6.67;;;;;36.35;29.45;100036.38;5058866;28;45406;-75
2022/06/03 09:26:32;;;;;;;;;8.00;7.00;;;;;35.75;30.60;100044.16;5060149;28;45489;-72
2022/06/03 09:29:01;;;;;;;;;8.00;8.00;;;;;34.97;31.64;100048.66;5057378;28;45666;-72
2022/06/03 09:31:27;;;;;;;;;7.33;7.33;;;;;33.88;32.54;100058.81;5059094;28;45403;-70
2022/06/03 09:33:56;;;;;;;;;6.67;6.67;;;;;33.04;33.99;100057.69;5059595;28;45810;-71
2022/06/03 09:36:25;;;;;;;;;6.33;6.00;;;;;32.37;34.80;100052.47;5059565;28;45460;-72
2022/06/03 09:39:05;;;;;;;;;5.33;5.33;;;;;31.93;35.30;100059.00;5059139;28;45319;-71
2022/06/03 09:41:36;;;;;;;;;6.67;6.67;;;;;31.70;36.29;100053.31;5059184;28;45557;-73
2022/06/03 09:44:03;;;;;;;;;8.00;7.67;;;;;31.50;36.42;100062.72;5059430;28;45488;-74
2022/06/03 09:46:31;;;;;;;;;6.00;6.00;;;;;31.52;36.88;100059.91;5059678;28;45286;-73
2022/06/03 09:48:59;;;;;;;;;6.67;6.00;;;;;31.63;36.08;100056.50;5059262;28;46258;-73
2022/06/03 09:54:36;;;;;;;;;6.33;6.33;;;;;31.19;37.50;100047.59;5059528;28;45440;-70
2022/06/03 09:57:16;;;;;;;;;5.67;5.67;;;;;31.24;37.04;100074.31;5059223;28;45458;-74
2022/06/03 10:00:22;;;;;;;;;7.00;7.00;;;;;30.92;37.17;100061.88;5058703;28;45453;-72
2022/06/03 10:02:48;;;;;;;;;5.00;5.00;;;;;30.51;37.96;100065.25;5058521;28;45287;-72
2022/06/03 10:05:17;;;;;;;;;6.33;6.33;;;;;29.98;38.37;100068.41;5059129;28;45234;-72
2022/06/03 10:07:45;;;;;;;;;4.67;4.67;;;;;29.66;38.68;100066.59;5059130;28;45341;-74
2022/06/03 10:13:03;;;;;;;;;5.00;5.00;;;;;29.68;38.94;100074.59;5058467;28;45893;-70
2022/06/03 10:15:41;;;;;;;;;6.00;6.00;;;;;29.24;38.91;100062.66;5058570;28;45261;-69
2022/06/03 10:18:22;;;;;;;;;6.00;6.00;;;;;28.90;39.51;100063.63;5058842;28;45316;-70
2022/06/03 10:20:50;;;;;;;;;6.00;6.00;;;;;28.80;40.04;100059.69;5058739;28;46191;-69
2022/06/03 10:23:20;;;;;;;;;6.00;5.67;;;;;29.11;39.18;100081.31;5058834;28;45501;-71
2022/06/03 10:25:49;;;;;;;;;10.67;8.67;;;;;29.26;39.47;100066.16;5057522;28;45447;-70
2022/06/03 10:28:16;;;;;;;;;7.00;7.00;;;;;29.23;39.39;100054.72;5058477;28;45174;-70
2022/06/03 10:30:44;;;;;;;;;7.33;7.00;;;;;29.14;39.61;100059.63;5058474;28;45587;-71
2022/06/03 10:33:19;;;;;;;;;8.00;7.33;;;;;29.04;40.49;100065.56;5058726;28;45362;-74
2022/06/03 10:35:47;;;;;;;;;8.00;7.00;;;;;29.11;40.07;100061.59;5058564;28;45456;-68
2022/06/03 10:38:20;;;;;;;;;7.00;6.00;;;;;29.10;40.33;100055.31;5057510;28;45531;-72
2022/06/03 10:40:50;;;;;;;;;7.33;6.67;;;;;29.55;39.38;100069.91;5058408;28;45991;-71
2022/06/03 10:43:30;;;;;;;;;7.00;7.00;;;;;29.78;38.37;100058.81;5058619;28;45447;-75
2022/06/03 10:46:18;;;;;;;;;5.00;4.00;;;;;30.06;38.64;100066.13;5058602;28;45470;-75
2022/06/03 10:48:45;;;;;;;;;8.00;8.00;;;;;30.14;38.52;100074.63;5058823;28;45349;-69
2022/06/03 10:51:15;;;;;;;;;6.33;6.33;;;;;29.96;38.32;100078.41;5058412;28;45332;-74
2022/06/03 11:02:30;;;;;;;;;8.00;7.00;;;;;28.52;41.29;100055.78;5057906;28;45833;-74
2022/06/03 11:05:16;;;;;;;;;8.00;8.00;;;;;28.51;42.06;100080.91;5058107;28;45273;-73
2022/06/03 11:07:42;;;;;;;;;7.00;6.00;;;;;28.73;41.56;100083.34;5058207;28;45528;-74
2022/06/03 11:10:13;;;;;;;;;6.00;5.33;;;;;28.84;41.31;100085.47;5058156;28;45456;-74
2022/06/03 11:12:43;;;;;;;;;8.33;7.33;;;;;29.07;40.93;100073.47;5058058;28;46212;-74
2022/06/03 11:15:42;;;;;;;;;5.67;5.67;;;;;29.48;39.33;100078.41;5057871;28;45484;-75
2022/06/03 11:18:22;;;;;;;;;6.00;5.00;;;;;29.96;39.33;100076.56;5061896;28;45488;-75
2022/06/03 11:20:52;;;;;;;;;6.33;6.00;;;;;30.58;38.42;100065.75;5056868;28;45233;-75
2022/06/03 11:23:19;;;;;;;;;7.00;6.67;;;;;31.31;36.15;100064.81;5057787;28;45242;-74
2022/06/03 11:25:59;;;;;;;;;5.67;5.67;;;;;31.37;35.94;100074.38;5057893;28;45514;-74
2022/06/03 11:28:38;;;;;;;;;7.00;6.00;;;;;30.97;37.33;100075.06;5057762;28;45550;-72
2022/06/03 11:31:14;;;;;;;;;6.67;6.00;;;;;30.55;37.43;100060.53;5058020;28;45215;-71
2022/06/03 11:33:48;;;;;;;;;6.00;6.00;;;;;30.65;37.54;100060.84;5056515;28;45948;-74
2022/06/03 11:36:20;;;;;;;;;7.33;7.00;;;;;31.33;36.08;100054.81;5057276;28;45243;-75
2022/06/03 11:38:49;;;;;;;;;7.00;7.00;;;;;31.25;36.00;100060.69;5057861;28;45453;-75
2022/06/03 11:41:32;;;;;;;;;7.00;7.00;;;;;31.29;36.81;100039.78;5057920;28;45458;-72
2022/06/03 11:44:28;;;;;;;;;7.67;7.00;;;;;31.66;36.49;100057.19;5057496;28;45648;-69
2022/06/03 11:47:13;;;;;;;;;6.00;6.00;;;;;31.26;36.80;100050.78;5057324;28;45318;-71
2022/06/03 11:49:41;;;;;;;;;6.67;6.67;;;;;30.93;37.22;100054.63;5057004;28;45422;-72
2022/06/03 11:52:08;;;;;;;;;7.67;6.67;;;;;30.82;38.07;100062.50;5057428;28;45219;-73
2022/06/03 11:54:36;;;;;;;;;8.33;8.00;;;;;30.96;37.28;100067.06;5056854;28;45255;-70
2022/06/03 11:57:05;;;;;;;;;8.33;7.33;;;;;30.58;37.90;100048.69;5057028;28;45505;-69
2022/06/03 11:59:31;;;;;;;;;7.00;7.00;;;;;30.16;38.66;100053.84;5057221;28;45464;-72
2022/06/03 12:02:08;;;;;;;;;6.67;6.67;;;;;29.99;39.36;100049.47;5057247;28;45414;-73
2022/06/03 12:04:55;;;;;;;;;7.00;7.00;;;;;30.41;38.93;100047.03;5056958;28;46166;-75
2022/06/03 12:07:35;;;;;;;;;7.00;7.00;;;;;31.09;38.09;100047.31;5057054;28;45335;-72
2022/06/03 12:10:04;;;;;;;;;7.67;7.67;;;;;31.29;37.28;100048.72;5055722;28;45469;-71
2022/06/03 12:15:27;;;;;;;;;7.00;6.00;;;;;30.96;37.97;100042.78;5056951;28;45525;-75
2022/06/03 12:17:52;;;;;;;;;6.67;6.67;;;;;31.09;37.09;100033.81;5057139;28;45244;-74
2022/06/03 12:20:30;;;;;;;;;8.00;6.00;;;;;31.46;37.36;100031.47;5056647;28;45201;-73
2022/06/03 12:22:55;;;;;;;;;6.67;6.33;;;;;31.64;36.98;100033.94;5057443;28;45316;-71
2022/06/03 12:25:33;;;;;;;;;6.67;6.67;;;;;31.83;35.94;100036.28;5056340;28;45496;-75
2022/06/03 12:28:03;;;;;;;;;6.00;6.00;;;;;31.97;35.09;100032.66;5056545;28;45346;-74
2022/06/03 12:30:43;;;;;;;;;6.67;6.67;;;;;32.07;35.44;100031.97;5056664;28;45254;-72
2022/06/03 12:33:31;;;;;;;;;7.00;7.00;;;;;32.32;36.09;100034.81;5056983;28;45307;-74
2022/06/03 12:36:08;;;;;;;;;4.33;4.33;;;;;32.38;35.33;100008.22;5056712;28;45300;-75
2022/06/03 12:38:43;;;;;;;;;7.67;6.33;;;;;32.39;35.34;100019.91;5056807;28;45481;-74
2022/06/03 12:41:09;;;;;;;;;6.00;5.00;;;;;32.13;35.02;100017.16;5056922;28;45419;-75
2022/06/03 12:43:46;;;;;;;;;5.00;5.00;;;;;31.95;35.44;100008.44;5057194;28;45418;-75
2022/06/03 12:46:36;;;;;;;;;7.00;6.67;;;;;31.96;35.37;100009.31;5056413;28;46140;-75
2022/06/03 12:49:04;;;;;;;;;8.00;7.00;;;;;32.05;35.35;100003.31;5059064;28;45441;-71
2022/06/03 12:51:34;;;;;;;;;6.00;6.00;;;;;32.07;35.88;100010.34;5060126;28;45296;-71
2022/06/03 12:54:16;;;;;;;;;8.00;7.67;;;;;31.90;35.88;100007.91;5060582;28;45319;-73
2022/06/03 12:57:17;;;;;;;;;6.33;6.33;;;;;31.65;36.12;99998.72;5059971;28;46295;-74
2022/06/03 12:59:52;;;;;;;;;6.00;6.00;;;;;31.67;35.97;100001.31;5059697;28;45516;-69
2022/06/03 13:02:22;;;;;;;;;4.67;4.67;;;;;31.52;36.91;100000.53;5060169;28;45397;-73